Time;durP1;ratioP1;P1;durP2;ratioP2;P2;SDS_P1;SDS_P2;PMS_P1;PMS_P2;Temp;Humidity;BMP_temperature;BMP_pressure;BME280_temperature;BME280_humidity;BME280_pressure;Samples;Min_cycle;Max_cycle;Signal;HPM_P1;HPM_P2
2022/05/30 00:00:07;;;;;;;;;;;;;;;;;;5016458;28;19917;-85
2022/05/30 00:02:34;;;;;;;;;;;;;;;;;;5018307;28;20394;-85
2022/05/30 00:04:59;;;;;;;;;;;;;;;;;;5035090;28;19925;-84
2022/05/30 00:07:25;;;;;;;;;;;;;;;;;;5034605;28;20378;-84
2022/05/30 00:09:50;;;;;;;;;;;;;;;;;;5019858;28;20347;-84
2022/05/30 00:12:17;;;;;;;;;;;;;;;;;;5003588;28;19918;-83
2022/05/30 00:14:45;;;;;;;;;;;;;;;;;;5005385;28;20332;-84
2022/05/30 00:17:10;;;;;;;;;;;;;;;;;;5003502;28;19967;-84
2022/05/30 00:19:37;;;;;;;;;;;;;;;;;;5002921;28;19917;-83
2022/05/30 00:22:02;;;;;;;;;;;;;;;;;;5016959;28;19921;-82
2022/05/30 00:24:28;;;;;;;;;;;;;;;;;;5033407;28;20389;-82
2022/05/30 00:26:57;;;;;;;;;;;;;;;;;;5033778;28;20282;-83
2022/05/30 00:29:23;;;;;;;;;;;;;;;;;;5033577;28;19925;-83
2022/05/30 00:31:49;;;;;;;;;;;;;;;;;;5034327;28;19918;-84
2022/05/30 00:34:15;;;;;;;;;;;;;;;;;;5034601;28;19953;-84
2022/05/30 00:36:41;;;;;;;;;;;;;;;;;;5034637;28;19943;-84
2022/05/30 00:39:09;;;;;;;;;;;;;;;;;;5034178;28;20114;-84
2022/05/30 00:41:39;;;;;;;;;;;;;;;;;;5034683;28;19929;-85
2022/05/30 00:44:10;;;;;;;;;;;;;;;;;;5055114;27;19952;-85
2022/05/30 00:46:38;;;;;;;;;;;;;;;;;;5038790;28;19913;-84
2022/05/30 00:49:06;;;;;;;;;;;;;;;;;;5022942;28;19925;-84
2022/05/30 00:51:46;;;;;;;;;;;;;;;;;;5022011;28;19966;-85
2022/05/30 00:54:13;;;;;;;;;;;;;;;;;;5039790;28;19917;-85
2022/05/30 00:56:40;;;;;;;;;;;;;;;;;;5022129;28;19922;-85
2022/05/30 00:59:09;;;;;;;;;;;;;;;;;;5022415;28;19922;-85
2022/05/30 01:01:36;;;;;;;;;;;;;;;;;;5039796;28;19926;-85
2022/05/30 01:06:50;;;;;;;;;;;;;;;;;;5056841;28;19928;-84
2022/05/30 01:09:22;;;;;;;;;;;;;;;;;;5039944;28;20454;-84
2022/05/30 01:11:48;;;;;;;;;;;;;;;;;;5040560;28;19961;-84
2022/05/30 01:14:14;;;;;;;;;;;;;;;;;;5073725;28;19962;-84
2022/05/30 01:16:39;;;;;;;;;;;;;;;;;;5040369;28;19966;-84
2022/05/30 01:19:33;;;;;;;;;;;;;;;;;;5040576;28;19917;-84
2022/05/30 01:22:20;;;;;;;;;;;;;;;;;;5000773;28;19929;-83
2022/05/30 01:24:54;;;;;;;;;;;;;;;;;;5066473;28;19997;-83
2022/05/30 01:28:10;;;;;;;;;;;;;;;;;;5027604;28;19965;-83
2022/05/30 01:30:41;;;;;;;;;;;;;;;;;;5033071;28;20287;-83
2022/05/30 01:33:09;;;;;;;;;;;;;;;;;;5032978;28;19925;-83
2022/05/30 01:35:34;;;;;;;;;;;;;;;;;;5033751;28;19918;-83
2022/05/30 01:38:04;;;;;;;;;;;;;;;;;;5033252;28;19924;-83
2022/05/30 01:40:33;;;;;;;;;;;;;;;;;;5032708;28;20375;-83
2022/05/30 01:42:58;;;;;;;;;;;;;;;;;;5033883;28;19921;-83
2022/05/30 01:45:25;;;;;;;;;;;;;;;;;;5033092;28;20012;-83
2022/05/30 01:47:51;;;;;;;;;;;;;;;;;;5033273;28;19917;-83
2022/05/30 01:50:18;;;;;;;;;;;;;;;;;;5027277;28;19957;-83
2022/05/30 01:52:47;;;;;;;;;;;;;;;;;;5015333;28;19957;-84
2022/05/30 01:55:15;;;;;;;;;;;;;;;;;;5016285;28;19918;-84
2022/05/30 01:57:52;;;;;;;;;;;;;;;;;;5018409;28;19936;-84
2022/05/30 02:00:33;;;;;;;;;;;;;;;;;;5030153;28;19922;-84
2022/05/30 02:02:58;;;;;;;;;;;;;;;;;;5017619;28;19928;-84
2022/05/30 02:05:25;;;;;;;;;;;;;;;;;;5015985;28;23151;-84
2022/05/30 02:07:51;;;;;;;;;;;;;;;;;;5016899;28;20345;-83
2022/05/30 02:10:21;;;;;;;;;;;;;;;;;;5015622;28;20363;-83
2022/05/30 02:12:47;;;;;;;;;;;;;;;;;;5016064;28;19939;-84
2022/05/30 02:15:17;;;;;;;;;;;;;;;;;;5014394;28;19964;-84
2022/05/30 02:17:46;;;;;;;;;;;;;;;;;;5015415;28;20374;-84
2022/05/30 02:20:13;;;;;;;;;;;;;;;;;;5014153;28;19924;-82
2022/05/30 02:22:39;;;;;;;;;;;;;;;;;;5013997;28;19922;-84
2022/05/30 02:25:07;;;;;;;;;;;;;;;;;;4996525;28;19929;-82
2022/05/30 02:27:32;;;;;;;;;;;;;;;;;;5012622;28;19918;-82
2022/05/30 02:29:58;;;;;;;;;;;;;;;;;;5012161;28;19926;-79
2022/05/30 02:32:27;;;;;;;;;;;;;;;;;;5011771;28;19917;-82
2022/05/30 02:37:40;;;;;;;;;;;;;;;;;;5041039;27;19917;-83
2022/05/30 02:40:43;;;;;;;;;;;;;;;;;;5014293;28;19922;-83
2022/05/30 02:43:44;;;;;;;;;;;;;;;;;;5008122;28;19948;-82
2022/05/30 02:46:12;;;;;;;;;;;;;;;;;;5036438;28;19961;-81
2022/05/30 02:48:39;;;;;;;;;;;;;;;;;;5035874;28;19924;-83
2022/05/30 02:51:04;;;;;;;;;;;;;;;;;;5019709;28;19917;-82
2022/05/30 02:53:30;;;;;;;;;;;;;;;;;;5036126;28;19918;-82
2022/05/30 02:56:18;;;;;;;;;;;;;;;;;;5001684;28;19921;-82
2022/05/30 02:58:44;;;;;;;;;;;;;;;;;;5037819;28;19922;-81
2022/05/30 03:01:12;;;;;;;;;;;;;;;;;;5037312;28;19933;-80
2022/05/30 03:03:41;;;;;;;;;;;;;;;;;;5019583;28;19918;-80
2022/05/30 03:06:07;;;;;;;;;;;;;;;;;;5019511;28;19981;-80
2022/05/30 03:08:33;;;;;;;;;;;;;;;;;;5027250;28;19918;-79
2022/05/30 03:11:10;;;;;;;;;;;;;;;;;;5003246;28;19924;-80
2022/05/30 03:13:36;;;;;;;;;;;;;;;;;;5019337;28;20371;-81
2022/05/30 03:16:05;;;;;;;;;;;;;;;;;;5017802;28;20295;-80
2022/05/30 03:18:33;;;;;;;;;;;;;;;;;;5018629;28;19970;-80
2022/05/30 03:20:59;;;;;;;;;;;;;;;;;;5018564;28;20012;-80
2022/05/30 03:23:29;;;;;;;;;;;;;;;;;;5017048;28;19940;-81
2022/05/30 03:26:05;;;;;;;;;;;;;;;;;;5001826;28;20445;-81
2022/05/30 03:28:31;;;;;;;;;;;;;;;;;;5037916;28;19922;-82
2022/05/30 03:30:59;;;;;;;;;;;;;;;;;;5039250;28;19921;-81
2022/05/30 03:33:24;;;;;;;;;;;;;;;;;;5039426;28;19918;-81
2022/05/30 03:35:50;;;;;;;;;;;;;;;;;;5039984;28;19921;-81
2022/05/30 03:38:34;;;;;;;;;;;;;;;;;;5023784;28;19967;-80
2022/05/30 03:41:28;;;;;;;;;;;;;;;;;;5025476;28;19921;-80
2022/05/30 03:44:16;;;;;;;;;;;;;;;;;;5023702;28;19923;-81
2022/05/30 03:46:44;;;;;;;;;;;;;;;;;;5039585;28;19918;-80
2022/05/30 03:49:11;;;;;;;;;;;;;;;;;;5043403;28;19917;-81
2022/05/30 03:51:38;;;;;;;;;;;;;;;;;;5025829;28;19917;-81
2022/05/30 03:54:03;;;;;;;;;;;;;;;;;;5025112;28;19928;-80
2022/05/30 03:56:28;;;;;;;;;;;;;;;;;;5025311;28;19917;-81
2022/05/30 03:58:54;;;;;;;;;;;;;;;;;;5026777;28;19946;-80
2022/05/30 04:01:24;;;;;;;;;;;;;;;;;;5057631;28;19956;-80
2022/05/30 04:03:51;;;;;;;;;;;;;;;;;;5058382;27;19974;-81
2022/05/30 04:06:16;;;;;;;;;;;;;;;;;;5043330;28;19917;-80
2022/05/30 04:08:46;;;;;;;;;;;;;;;;;;5028874;28;19924;-81
2022/05/30 04:11:31;;;;;;;;;;;;;;;;;;5046000;28;19938;-79
2022/05/30 04:14:18;;;;;;;;;;;;;;;;;;5070527;28;19963;-80
2022/05/30 04:17:03;;;;;;;;;;;;;;;;;;5043966;28;19924;-80
2022/05/30 04:19:29;;;;;;;;;;;;;;;;;;5041194;28;20387;-80
2022/05/30 04:21:55;;;;;;;;;;;;;;;;;;5074780;28;19926;-80
2022/05/30 04:24:44;;;;;;;;;;;;;;;;;;5055302;28;19940;-80
2022/05/30 04:27:13;;;;;;;;;;;;;;;;;;5061477;28;20470;-80
2022/05/30 04:29:38;;;;;;;;;;;;;;;;;;5061437;28;19984;-81
2022/05/30 04:32:24;;;;;;;;;;;;;;;;;;5025254;28;19963;-79
2022/05/30 04:34:49;;;;;;;;;;;;;;;;;;5041593;28;19917;-79
2022/05/30 04:37:16;;;;;;;;;;;;;;;;;;5042713;28;19917;-81
2022/05/30 04:39:44;;;;;;;;;;;;;;;;;;5042152;28;19918;-79
2022/05/30 04:42:28;;;;;;;;;;;;;;;;;;5025686;28;19932;-81
2022/05/30 04:45:13;;;;;;;;;;;;;;;;;;5026061;28;19982;-81
2022/05/30 04:48:14;;;;;;;;;;;;;;;;;;5019519;28;19924;-80
2022/05/30 04:50:41;;;;;;;;;;;;;;;;;;5042030;28;19924;-80
2022/05/30 04:53:08;;;;;;;;;;;;;;;;;;5041391;28;19925;-80
2022/05/30 04:55:51;;;;;;;;;;;;;;;;;;5055070;28;19918;-80
2022/05/30 04:58:33;;;;;;;;;;;;;;;;;;5041774;28;19970;-80
2022/05/30 05:01:19;;;;;;;;;;;;;;;;;;5044031;28;19926;-80
2022/05/30 05:03:45;;;;;;;;;;;;;;;;;;5041754;27;19917;-80
2022/05/30 05:06:18;;;;;;;;;;;;;;;;;;5039966;28;19918;-80
2022/05/30 05:08:56;;;;;;;;;;;;;;;;;;5040043;28;19924;-79
2022/05/30 05:11:35;;;;;;;;;;;;;;;;;;5026256;28;19917;-79
2022/05/30 05:14:19;;;;;;;;;;;;;;;;;;5024394;28;20446;-79
2022/05/30 05:17:05;;;;;;;;;;;;;;;;;;5025278;28;19943;-80
2022/05/30 05:19:33;;;;;;;;;;;;;;;;;;5040103;28;20397;-79
2022/05/30 05:22:01;;;;;;;;;;;;;;;;;;5039965;28;19932;-80
2022/05/30 05:24:26;;;;;;;;;;;;;;;;;;5041072;28;19914;-79
2022/05/30 05:27:10;;;;;;;;;;;;;;;;;;5022848;28;19924;-81
2022/05/30 05:29:39;;;;;;;;;;;;;;;;;;5041267;28;19918;-81
2022/05/30 05:32:07;;;;;;;;;;;;;;;;;;5041190;28;20325;-79
2022/05/30 05:34:32;;;;;;;;;;;;;;;;;;5040466;28;19929;-79
2022/05/30 05:36:58;;;;;;;;;;;;;;;;;;5041314;28;19921;-80
2022/05/30 05:39:25;;;;;;;;;;;;;;;;;;5024787;28;19925;-79
2022/05/30 05:41:55;;;;;;;;;;;;;;;;;;5041638;28;19922;-79
2022/05/30 05:44:22;;;;;;;;;;;;;;;;;;5040055;28;19917;-80
2022/05/30 05:46:49;;;;;;;;;;;;;;;;;;5025336;28;20004;-80
2022/05/30 05:49:15;;;;;;;;;;;;;;;;;;5037329;28;19933;-83
2022/05/30 05:51:41;;;;;;;;;;;;;;;;;;5030578;28;19996;-79
2022/05/30 05:54:10;;;;;;;;;;;;;;;;;;5030420;28;19918;-79
2022/05/30 05:56:36;;;;;;;;;;;;;;;;;;5030176;28;19979;-79
2022/05/30 05:59:08;;;;;;;;;;;;;;;;;;5013116;28;20370;-80
2022/05/30 06:01:35;;;;;;;;;;;;;;;;;;5032063;28;19922;-81
2022/05/30 06:04:03;;;;;;;;;;;;;;;;;;5039532;28;19917;-78
2022/05/30 06:06:38;;;;;;;;;;;;;;;;;;5070290;28;19985;-80
2022/05/30 06:09:04;;;;;;;;;;;;;;;;;;5023825;28;19932;-80
2022/05/30 06:11:48;;;;;;;;;;;;;;;;;;5039895;28;19960;-80
2022/05/30 06:14:14;;;;;;;;;;;;;;;;;;5019886;28;20290;-79
2022/05/30 06:16:41;;;;;;;;;;;;;;;;;;5017929;28;19918;-80
2022/05/30 06:19:10;;;;;;;;;;;;;;;;;;5021247;28;19940;-79
2022/05/30 06:21:36;;;;;;;;;;;;;;;;;;5030004;28;20441;-80
2022/05/30 06:24:01;;;;;;;;;;;;;;;;;;5013692;28;19917;-80
2022/05/30 06:26:45;;;;;;;;;;;;;;;;;;5034099;28;19939;-80
2022/05/30 06:29:20;;;;;;;;;;;;;;;;;;5033981;28;19970;-80
2022/05/30 06:31:45;;;;;;;;;;;;;;;;;;5017745;28;20324;-80
2022/05/30 06:34:11;;;;;;;;;;;;;;;;;;5017575;28;19925;-80
2022/05/30 06:36:38;;;;;;;;;;;;;;;;;;5032866;27;20287;-80
2022/05/30 06:39:04;;;;;;;;;;;;;;;;;;5011177;28;19957;-80
2022/05/30 06:41:41;;;;;;;;;;;;;;;;;;5011538;28;20052;-80
2022/05/30 06:44:08;;;;;;;;;;;;;;;;;;5012057;28;19922;-80
2022/05/30 06:46:52;;;;;;;;;;;;;;;;;;4995752;28;19941;-80
2022/05/30 06:49:36;;;;;;;;;;;;;;;;;;4996205;28;19925;-81
2022/05/30 06:52:04;;;;;;;;;;;;;;;;;;5012121;28;19921;-80
2022/05/30 06:54:31;;;;;;;;;;;;;;;;;;5011855;28;19918;-80
2022/05/30 06:59:42;;;;;;;;;;;;;;;;;;5027873;28;19917;-80
2022/05/30 07:02:10;;;;;;;;;;;;;;;;;;5011861;28;19926;-81
2022/05/30 07:05:08;;;;;;;;;;;;;;;;;;4995105;28;20287;-80
2022/05/30 07:07:56;;;;;;;;;;;;;;;;;;5068290;28;19963;-83
2022/05/30 07:10:31;;;;;;;;;;;;;;;;;;5077038;28;19976;-81
2022/05/30 07:13:20;;;;;;;;;;;;;;;;;;5087707;28;20330;-83
2022/05/30 07:15:48;;;;;;;;;;;;;;;;;;5098897;28;19925;-83
2022/05/30 07:18:20;;;;;;;;;;;;;;;;;;5093634;28;19917;-84
2022/05/30 07:20:53;;;;;;;;;;;;;;;;;;5028813;28;19922;-79
2022/05/30 07:23:32;;;;;;;;;;;;;;;;;;5078237;28;19962;-82
2022/05/30 07:26:17;;;;;;;;;;;;;;;;;;5073282;28;19929;-82
2022/05/30 07:29:01;;;;;;;;;;;;;;;;;;5001520;28;19943;-82
2022/05/30 07:31:45;;;;;;;;;;;;;;;;;;4998554;28;20425;-81
2022/05/30 07:34:31;;;;;;;;;;;;;;;;;;5001149;28;19948;-81
2022/05/30 07:37:16;;;;;;;;;;;;;;;;;;5002705;28;19924;-81
2022/05/30 07:40:11;;;;;;;;;;;;;;;;;;4992671;28;20286;-77
2022/05/30 07:42:49;;;;;;;;;;;;;;;;;;5019331;28;20000;-81
2022/05/30 07:45:26;;;;;;;;;;;;;;;;;;5025223;28;19918;-81
2022/05/30 07:48:05;;;;;;;;;;;;;;;;;;5021337;28;20058;-80
2022/05/30 07:50:53;;;;;;;;;;;;;;;;;;5020930;28;19957;-80
2022/05/30 07:53:26;;;;;;;;;;;;;;;;;;5020092;28;19917;-81
2022/05/30 07:56:12;;;;;;;;;;;;;;;;;;5013406;28;20458;-84
2022/05/30 07:58:41;;;;;;;;;;;;;;;;;;5019236;28;19974;-82
2022/05/30 08:01:10;;;;;;;;;;;;;;;;;;4999803;28;19926;-82
2022/05/30 08:03:37;;;;;;;;;;;;;;;;;;5013850;28;20367;-83
2022/05/30 08:06:30;;;;;;;;;;;;;;;;;;4998671;28;20342;-83
2022/05/30 08:09:14;;;;;;;;;;;;;;;;;;4999038;28;19967;-83
2022/05/30 08:11:50;;;;;;;;;;;;;;;;;;5015558;28;20277;-81
2022/05/30 08:14:36;;;;;;;;;;;;;;;;;;5000753;28;19918;-84
2022/05/30 08:17:02;;;;;;;;;;;;;;;;;;5015005;28;19925;-81
2022/05/30 08:19:31;;;;;;;;;;;;;;;;;;5013030;28;20078;-83
2022/05/30 08:22:04;;;;;;;;;;;;;;;;;;5012838;28;20379;-83
2022/05/30 08:24:33;;;;;;;;;;;;;;;;;;5013206;28;20004;-84
2022/05/30 08:27:03;;;;;;;;;;;;;;;;;;5017430;27;19983;-82
2022/05/30 08:29:56;;;;;;;;;;;;;;;;;;5016844;28;19918;-82
2022/05/30 08:32:31;;;;;;;;;;;;;;;;;;5030537;28;19922;-80
2022/05/30 08:34:59;;;;;;;;;;;;;;;;;;5016208;28;19923;-82
2022/05/30 08:37:33;;;;;;;;;;;;;;;;;;5034230;28;19944;-80
2022/05/30 08:42:50;;;;;;;;;;;;;;;;;;5060621;28;19932;-81
2022/05/30 08:45:45;;;;;;;;;;;;;;;;;;5026965;28;19945;-80
2022/05/30 08:48:38;;;;;;;;;;;;;;;;;;5046956;28;19918;-80
2022/05/30 08:51:23;;;;;;;;;;;;;;;;;;5026756;28;19917;-80
2022/05/30 08:54:05;;;;;;;;;;;;;;;;;;5075974;28;19925;-80
2022/05/30 08:56:43;;;;;;;;;;;;;;;;;;5067073;28;19985;-81
2022/05/30 08:59:29;;;;;;;;;;;;;;;;;;5016603;28;19929;-80
2022/05/30 09:02:05;;;;;;;;;;;;;;;;;;5032875;28;19921;-82
2022/05/30 09:05:00;;;;;;;;;;;;;;;;;;5016220;28;19917;-80
2022/05/30 09:07:27;;;;;;;;;;;;;;;;;;5000113;28;19917;-81
2022/05/30 09:09:59;;;;;;;;;;;;;;;;;;5014481;28;19918;-80
2022/05/30 09:12:37;;;;;;;;;;;;;;;;;;5032390;28;19918;-82
2022/05/30 09:15:28;;;;;;;;;;;;;;;;;;5015076;28;20004;-80
2022/05/30 09:18:22;;;;;;;;;;;;;;;;;;5014794;28;19928;-80
2022/05/30 09:20:48;;;;;;;;;;;;;;;;;;5024864;28;19928;-80
2022/05/30 09:23:19;;;;;;;;;;;;;;;;;;5015132;28;20340;-80
2022/05/30 09:25:56;;;;;;;;;;;;;;;;;;5045911;28;19921;-80
2022/05/30 09:28:45;;;;;;;;;;;;;;;;;;5066983;27;19924;-80
2022/05/30 09:31:39;;;;;;;;;;;;;;;;;;5034652;28;20015;-83
2022/05/30 09:34:41;;;;;;;;;;;;;;;;;;5024124;28;19918;-82
2022/05/30 09:37:31;;;;;;;;;;;;;;;;;;5037621;28;20005;-80
2022/05/30 09:40:06;;;;;;;;;;;;;;;;;;5014569;28;19918;-78
2022/05/30 09:42:33;;;;;;;;;;;;;;;;;;4993139;28;19943;-77
2022/05/30 09:45:07;;;;;;;;;;;;;;;;;;5008152;28;20322;-76
2022/05/30 09:47:58;;;;;;;;;;;;;;;;;;5018754;28;19918;-77
2022/05/30 09:50:29;;;;;;;;;;;;;;;;;;5040883;28;20371;-80
2022/05/30 09:52:54;;;;;;;;;;;;;;;;;;4999930;28;19917;-80
2022/05/30 09:55:36;;;;;;;;;;;;;;;;;;5035321;28;19981;-79
2022/05/30 09:58:10;;;;;;;;;;;;;;;;;;5004173;28;19989;-78
2022/05/30 10:00:56;;;;;;;;;;;;;;;;;;5006989;28;20000;-83
2022/05/30 10:03:29;;;;;;;;;;;;;;;;;;5002824;28;19921;-82
2022/05/30 10:06:16;;;;;;;;;;;;;;;;;;5034148;28;20019;-85
2022/05/30 10:08:42;;;;;;;;;;;;;;;;;;5015565;28;19964;-80
2022/05/30 10:11:32;;;;;;;;;;;;;;;;;;4998085;28;19926;-82
2022/05/30 10:14:17;;;;;;;;;;;;;;;;;;5005617;28;19917;-79
2022/05/30 10:17:13;;;;;;;;;;;;;;;;;;5013661;28;19924;-79
2022/05/30 10:19:41;;;;;;;;;;;;;;;;;;5019957;28;19925;-82
2022/05/30 10:28:56;;;;;;;;;;;;;;;;;;5015294;28;19917;-79
2022/05/30 10:32:05;;;;;;;;;;;;;;;;;;5017709;28;19922;-79
2022/05/30 10:34:51;;;;;;;;;;;;;;;;;;5018315;28;20027;-83
2022/05/30 10:37:20;;;;;;;;;;;;;;;;;;4996178;28;19917;-81
2022/05/30 10:39:55;;;;;;;;;;;;;;;;;;5045942;28;19918;-80
2022/05/30 10:42:24;;;;;;;;;;;;;;;;;;5025221;28;19922;-81
2022/05/30 10:44:58;;;;;;;;;;;;;;;;;;4996945;28;19921;-80
2022/05/30 10:47:39;;;;;;;;;;;;;;;;;;5048501;28;19918;-80
2022/05/30 10:50:04;;;;;;;;;;;;;;;;;;5017365;28;20342;-81
2022/05/30 10:52:37;;;;;;;;;;;;;;;;;;5009537;28;19918;-80
2022/05/30 10:55:10;;;;;;;;;;;;;;;;;;5021612;28;19917;-80
2022/05/30 10:57:51;;;;;;;;;;;;;;;;;;5067569;27;19968;-80
2022/05/30 11:00:19;;;;;;;;;;;;;;;;;;5032861;28;20008;-80
2022/05/30 11:03:03;;;;;;;;;;;;;;;;;;5036642;28;19929;-81
2022/05/30 11:05:35;;;;;;;;;;;;;;;;;;5057065;27;19925;-80
2022/05/30 11:08:09;;;;;;;;;;;;;;;;;;5036495;28;19921;-80
2022/05/30 11:10:45;;;;;;;;;;;;;;;;;;5058069;28;20306;-79
2022/05/30 11:13:24;;;;;;;;;;;;;;;;;;5017097;28;19918;-79
2022/05/30 11:16:22;;;;;;;;;;;;;;;;;;5035535;28;19932;-80
2022/05/30 11:19:12;;;;;;;;;;;;;;;;;;5051684;28;19989;-80
2022/05/30 11:22:00;;;;;;;;;;;;;;;;;;5025052;28;19922;-79
2022/05/30 11:24:27;;;;;;;;;;;;;;;;;;5061268;28;19917;-81
2022/05/30 11:27:10;;;;;;;;;;;;;;;;;;5045249;28;19917;-80
2022/05/30 11:29:56;;;;;;;;;;;;;;;;;;5039182;28;20008;-79
2022/05/30 11:32:36;;;;;;;;;;;;;;;;;;5037777;28;19917;-80
2022/05/30 11:35:09;;;;;;;;;;;;;;;;;;5022325;28;19917;-80
2022/05/30 11:37:48;;;;;;;;;;;;;;;;;;5020474;28;19917;-79
2022/05/30 11:40:17;;;;;;;;;;;;;;;;;;5036761;28;19929;-79
2022/05/30 11:42:56;;;;;;;;;;;;;;;;;;5023166;28;19964;-79
2022/05/30 11:45:35;;;;;;;;;;;;;;;;;;5024225;28;19924;-80
2022/05/30 11:48:12;;;;;;;;;;;;;;;;;;5043078;28;19917;-79
2022/05/30 11:50:45;;;;;;;;;;;;;;;;;;5041045;28;19963;-79
2022/05/30 11:53:20;;;;;;;;;;;;;;;;;;5025360;28;20021;-80
2022/05/30 11:55:48;;;;;;;;;;;;;;;;;;5069771;28;20294;-79
2022/05/30 11:58:32;;;;;;;;;;;;;;;;;;5057104;27;20008;-80
2022/05/30 12:00:59;;;;;;;;;;;;;;;;;;5039878;28;20468;-79
2022/05/30 12:03:45;;;;;;;;;;;;;;;;;;5055842;28;20354;-79
2022/05/30 12:06:11;;;;;;;;;;;;;;;;;;5040698;28;19917;-79
2022/05/30 12:08:48;;;;;;;;;;;;;;;;;;5042261;28;19966;-79
2022/05/30 12:11:32;;;;;;;;;;;;;;;;;;5043133;28;19925;-79
2022/05/30 12:13:58;;;;;;;;;;;;;;;;;;5026991;28;20004;-79
2022/05/30 12:16:41;;;;;;;;;;;;;;;;;;5027346;28;19917;-79
2022/05/30 12:24:53;;;;;;;;;;;;;;;;;;5025106;28;19967;-79
2022/05/30 12:27:25;;;;;;;;;;;;;;;;;;5008143;28;19917;-79
2022/05/30 12:29:51;;;;;;;;;;;;;;;;;;5024611;28;19989;-79
2022/05/30 12:32:17;;;;;;;;;;;;;;;;;;5024798;28;19925;-79
2022/05/30 12:34:57;;;;;;;;;;;;;;;;;;5007968;28;19917;-79
2022/05/30 12:37:38;;;;;;;;;;;;;;;;;;5041660;28;19940;-79
2022/05/30 12:40:04;;;;;;;;;;;;;;;;;;5024244;28;19924;-79
2022/05/30 12:42:34;;;;;;;;;;;;;;;;;;5008234;28;19918;-80
2022/05/30 12:45:20;;;;;;;;;;;;;;;;;;5003891;28;19922;-78
2022/05/30 12:47:50;;;;;;;;;;;;;;;;;;5004483;28;19925;-82
2022/05/30 12:50:32;;;;;;;;;;;;;;;;;;5004364;28;19939;-84
2022/05/30 12:52:59;;;;;;;;;;;;;;;;;;5000253;28;19918;-79
2022/05/30 12:55:37;;;;;;;;;;;;;;;;;;5056106;28;19924;-82
2022/05/30 12:58:06;;;;;;;;;;;;;;;;;;4999360;28;19921;-81
2022/05/30 13:00:40;;;;;;;;;;;;;;;;;;5013737;28;19922;-83
2022/05/30 13:03:08;;;;;;;;;;;;;;;;;;5024254;28;19921;-81
2022/05/30 13:05:40;;;;;;;;;;;;;;;;;;5021507;28;20405;-81
2022/05/30 13:08:24;;;;;;;;;;;;;;;;;;5020378;28;19948;-82
2022/05/30 13:10:55;;;;;;;;;;;;;;;;;;5020211;28;20008;-82
2022/05/30 13:13:26;;;;;;;;;;;;;;;;;;5018725;28;20272;-82
2022/05/30 13:15:56;;;;;;;;;;;;;;;;;;5001394;28;19918;-82
2022/05/30 13:18:22;;;;;;;;;;;;;;;;;;5000502;28;19918;-81
2022/05/30 13:21:00;;;;;;;;;;;;;;;;;;5017821;28;19933;-82
2022/05/30 13:23:27;;;;;;;;;;;;;;;;;;5001887;28;19957;-82
2022/05/30 13:25:52;;;;;;;;;;;;;;;;;;5017372;28;19918;-82
2022/05/30 13:28:22;;;;;;;;;;;;;;;;;;5021428;28;19940;-82
2022/05/30 13:30:49;;;;;;;;;;;;;;;;;;5055512;28;19918;-81
2022/05/30 13:33:23;;;;;;;;;;;;;;;;;;5022460;28;20025;-81
2022/05/30 13:35:55;;;;;;;;;;;;;;;;;;5037450;28;19922;-82
2022/05/30 13:38:26;;;;;;;;;;;;;;;;;;5108109;28;19920;-81
2022/05/30 13:40:52;;;;;;;;;;;;;;;;;;5107839;28;19918;-82
2022/05/30 13:43:20;;;;;;;;;;;;;;;;;;5104559;28;19961;-80
2022/05/30 13:45:46;;;;;;;;;;;;;;;;;;5047872;28;19918;-78
2022/05/30 13:48:13;;;;;;;;;;;;;;;;;;5084133;28;19939;-78
2022/05/30 13:50:45;;;;;;;;;;;;;;;;;;5102428;28;19925;-78
2022/05/30 13:53:16;;;;;;;;;;;;;;;;;;5010806;28;20286;-79
2022/05/30 13:55:50;;;;;;;;;;;;;;;;;;5009904;28;19918;-80
2022/05/30 13:58:16;;;;;;;;;;;;;;;;;;5010897;28;19922;-79
2022/05/30 14:00:45;;;;;;;;;;;;;;;;;;5028207;28;19918;-78
2022/05/30 14:03:15;;;;;;;;;;;;;;;;;;5012613;28;19917;-79
2022/05/30 14:05:42;;;;;;;;;;;;;;;;;;5013574;28;20000;-79
2022/05/30 14:08:12;;;;;;;;;;;;;;;;;;5012990;28;19964;-79
2022/05/30 14:10:39;;;;;;;;;;;;;;;;;;5028855;28;20020;-78
2022/05/30 14:13:15;;;;;;;;;;;;;;;;;;5029158;28;19939;-78
2022/05/30 14:15:51;;;;;;;;;;;;;;;;;;5012615;28;19922;-78
2022/05/30 14:18:28;;;;;;;;;;;;;;;;;;5012585;28;19924;-78
2022/05/30 14:20:56;;;;;;;;;;;;;;;;;;5012778;28;19922;-78
2022/05/30 14:23:21;;;;;;;;;;;;;;;;;;5061400;28;19925;-78
2022/05/30 14:25:48;;;;;;;;;;;;;;;;;;5006066;28;19924;-80
2022/05/30 14:28:27;;;;;;;;;;;;;;;;;;5013223;28;19917;-82
2022/05/30 14:30:55;;;;;;;;;;;;;;;;;;5017370;28;19924;-80
2022/05/30 14:33:24;;;;;;;;;;;;;;;;;;5034037;28;20310;-82
2022/05/30 14:35:49;;;;;;;;;;;;;;;;;;5057895;28;20195;-79
2022/05/30 14:38:44;;;;;;;;;;;;;;;;;;5019826;28;19977;-80
2022/05/30 14:41:10;;;;;;;;;;;;;;;;;;5067095;27;19925;-80
2022/05/30 14:43:48;;;;;;;;;;;;;;;;;;5043807;28;20012;-80
2022/05/30 14:46:26;;;;;;;;;;;;;;;;;;5007131;28;19949;-78
2022/05/30 14:48:52;;;;;;;;;;;;;;;;;;5002013;28;19924;-78
2022/05/30 14:51:22;;;;;;;;;;;;;;;;;;5015349;28;20007;-78
2022/05/30 14:53:50;;;;;;;;;;;;;;;;;;5030410;28;19976;-79
2022/05/30 14:56:20;;;;;;;;;;;;;;;;;;5014530;28;19918;-79
2022/05/30 14:58:50;;;;;;;;;;;;;;;;;;5029398;28;20278;-78
2022/05/30 15:01:20;;;;;;;;;;;;;;;;;;5013755;28;19922;-78
2022/05/30 15:06:33;;;;;;;;;;;;;;;;;;5047045;28;19921;-79
2022/05/30 15:08:58;;;;;;;;;;;;;;;;;;5029514;28;20370;-79
2022/05/30 15:11:24;;;;;;;;;;;;;;;;;;5029724;28;19925;-78
2022/05/30 15:13:59;;;;;;;;;;;;;;;;;;5013603;28;19928;-78
2022/05/30 15:16:27;;;;;;;;;;;;;;;;;;5014050;28;19917;-78
2022/05/30 15:18:53;;;;;;;;;;;;;;;;;;5010362;28;19963;-79
2022/05/30 15:21:23;;;;;;;;;;;;;;;;;;4994691;28;19926;-78
2022/05/30 15:23:49;;;;;;;;;;;;;;;;;;5056124;27;19917;-79
2022/05/30 15:26:17;;;;;;;;;;;;;;;;;;5050294;28;19917;-78
2022/05/30 15:28:44;;;;;;;;;;;;;;;;;;5050766;28;19935;-79
2022/05/30 15:31:10;;;;;;;;;;;;;;;;;;5034985;28;19921;-79
2022/05/30 15:33:35;;;;;;;;;;;;;;;;;;5052402;28;20370;-82
2022/05/30 15:36:01;;;;;;;;;;;;;;;;;;5035256;28;19917;-82
2022/05/30 15:38:27;;;;;;;;;;;;;;;;;;5019611;28;19925;-81
2022/05/30 15:40:52;;;;;;;;;;;;;;;;;;5051610;28;20020;-81
2022/05/30 15:43:18;;;;;;;;;;;;;;;;;;4998874;28;19918;-81
2022/05/30 15:45:43;;;;;;;;;;;;;;;;;;4999009;28;19918;-81
2022/05/30 15:48:08;;;;;;;;;;;;;;;;;;5015375;28;20194;-81
2022/05/30 15:50:34;;;;;;;;;;;;;;;;;;5019108;28;20024;-81
2022/05/30 15:58:31;;;;;;;;;;;;;;;;;;5033509;28;19922;-81
2022/05/30 16:00:57;;;;;;;;;;;;;;;;;;5022332;28;19918;-81
2022/05/30 16:03:24;;;;;;;;;;;;;;;;;;5017088;28;19940;-81
2022/05/30 16:05:49;;;;;;;;;;;;;;;;;;5018200;28;19985;-81
2022/05/30 16:08:20;;;;;;;;;;;;;;;;;;5017471;28;20409;-81
2022/05/30 16:10:47;;;;;;;;;;;;;;;;;;5000748;28;20292;-81
2022/05/30 16:13:14;;;;;;;;;;;;;;;;;;5017439;28;19918;-81
2022/05/30 16:15:40;;;;;;;;;;;;;;;;;;5001269;28;19918;-81
2022/05/30 16:18:05;;;;;;;;;;;;;;;;;;5015687;28;19971;-79
2022/05/30 16:20:31;;;;;;;;;;;;;;;;;;5028835;28;19949;-84
2022/05/30 16:22:56;;;;;;;;;;;;;;;;;;5005402;28;19921;-82
2022/05/30 16:25:21;;;;;;;;;;;;;;;;;;5005676;28;19982;-82
2022/05/30 16:27:49;;;;;;;;;;;;;;;;;;5053805;28;20390;-82
2022/05/30 16:30:14;;;;;;;;;;;;;;;;;;5021787;28;19931;-81
2022/05/30 16:32:39;;;;;;;;;;;;;;;;;;5038228;28;20004;-82
2022/05/30 16:35:07;;;;;;;;;;;;;;;;;;5021855;28;19940;-82
2022/05/30 16:37:33;;;;;;;;;;;;;;;;;;5020031;28;19917;-82
2022/05/30 16:39:58;;;;;;;;;;;;;;;;;;5004901;28;19920;-82
2022/05/30 16:42:23;;;;;;;;;;;;;;;;;;5020577;28;19926;-82
2022/05/30 16:44:51;;;;;;;;;;;;;;;;;;5003577;28;19933;-82
2022/05/30 16:47:20;;;;;;;;;;;;;;;;;;5007196;28;19917;-82
2022/05/30 16:49:46;;;;;;;;;;;;;;;;;;5024830;28;19973;-82
2022/05/30 16:52:12;;;;;;;;;;;;;;;;;;5041712;28;19924;-82
2022/05/30 16:54:38;;;;;;;;;;;;;;;;;;5041101;28;19917;-82
2022/05/30 16:57:04;;;;;;;;;;;;;;;;;;5041280;28;19939;-81
2022/05/30 16:59:30;;;;;;;;;;;;;;;;;;5042245;28;20378;-82
2022/05/30 17:01:55;;;;;;;;;;;;;;;;;;5039515;28;19921;-82
2022/05/30 17:04:25;;;;;;;;;;;;;;;;;;5021983;28;19918;-81
2022/05/30 17:06:52;;;;;;;;;;;;;;;;;;5021733;28;19918;-81
2022/05/30 17:09:20;;;;;;;;;;;;;;;;;;5021641;28;20013;-82
2022/05/30 17:11:49;;;;;;;;;;;;;;;;;;5021064;28;19922;-81
2022/05/30 17:14:17;;;;;;;;;;;;;;;;;;5006533;28;20012;-82
2022/05/30 17:16:43;;;;;;;;;;;;;;;;;;5020789;28;19918;-81
2022/05/30 17:19:13;;;;;;;;;;;;;;;;;;5021082;28;19925;-81
2022/05/30 17:21:42;;;;;;;;;;;;;;;;;;5020254;28;19926;-81
2022/05/30 17:24:10;;;;;;;;;;;;;;;;;;5020156;28;19997;-82
2022/05/30 17:29:25;;;;;;;;;;;;;;;;;;5037701;28;19981;-81
2022/05/30 17:31:51;;;;;;;;;;;;;;;;;;5019719;28;19918;-81
2022/05/30 17:34:20;;;;;;;;;;;;;;;;;;5005628;28;19957;-81
2022/05/30 17:36:46;;;;;;;;;;;;;;;;;;5019838;28;20025;-81
2022/05/30 17:39:12;;;;;;;;;;;;;;;;;;5019803;28;19918;-81
2022/05/30 17:41:37;;;;;;;;;;;;;;;;;;5019288;28;19987;-81
2022/05/30 17:44:04;;;;;;;;;;;;;;;;;;5020082;28;19925;-81
2022/05/30 17:46:33;;;;;;;;;;;;;;;;;;5018629;28;19922;-81
2022/05/30 17:49:06;;;;;;;;;;;;;;;;;;5018504;28;19929;-81
2022/05/30 17:51:31;;;;;;;;;;;;;;;;;;5018049;28;19930;-81
2022/05/30 17:53:57;;;;;;;;;;;;;;;;;;5019069;28;20018;-81
2022/05/30 17:56:25;;;;;;;;;;;;;;;;;;5017795;28;19941;-81